createdAt,value
2018-05-03T00:00:15.280Z,88.52
2018-05-03T00:02:43.381Z,88.83
2018-05-03T00:05:11.530Z,88.94
2018-05-03T00:07:39.650Z,89.54
2018-05-03T00:10:07.768Z,90.19
2018-05-03T00:12:35.910Z,90.67
2018-05-03T00:15:04.018Z,91.63
2018-05-03T00:17:32.146Z,91.41
2018-05-03T00:20:00.279Z,91.38
2018-05-03T00:22:28.393Z,91.62
2018-05-03T00:24:56.533Z,91.18
2018-05-03T00:27:24.673Z,91.89
2018-05-03T00:29:52.811Z,91.63
2018-05-03T00:32:20.945Z,91.94
2018-05-03T00:34:49.058Z,92.48
2018-05-03T00:37:17.194Z,91.84
2018-05-03T00:39:45.318Z,91.11
2018-05-03T00:42:13.446Z,91.20
2018-05-03T00:44:41.822Z,90.97
2018-05-03T00:47:10.650Z,91.40
2018-05-03T00:49:38.773Z,91.45
2018-05-03T00:52:06.899Z,92.03
2018-05-03T00:54:46.805Z,92.82
2018-05-03T00:57:14.907Z,92.85
2018-05-03T00:59:43.023Z,92.96
2018-05-03T01:02:11.347Z,92.84
2018-05-03T01:04:39.509Z,93.11
2018-05-03T01:07:07.690Z,93.37
2018-05-03T01:09:35.846Z,93.49
2018-05-03T01:12:04.004Z,93.07
2018-05-03T01:14:32.114Z,91.89
2018-05-03T01:17:00.257Z,91.40
2018-05-03T01:19:28.371Z,90.89
2018-05-03T01:21:56.503Z,91.73
2018-05-03T01:24:24.635Z,91.93
2018-05-03T01:26:52.756Z,91.67
2018-05-03T01:29:20.879Z,92.04
2018-05-03T01:31:49.046Z,92.29
2018-05-03T01:34:17.163Z,92.46
2018-05-03T01:36:45.285Z,92.83
2018-05-03T01:39:13.423Z,93.31
2018-05-03T01:41:41.567Z,93.59
2018-05-03T01:44:09.699Z,93.62
2018-05-03T01:46:37.815Z,93.62
2018-05-03T01:49:05.982Z,93.13
2018-05-03T01:51:34.078Z,93.15
2018-05-03T01:54:02.210Z,93.84
2018-05-03T01:56:30.321Z,94.31
2018-05-03T01:58:58.443Z,93.58
2018-05-03T02:01:26.601Z,93.71
2018-05-03T02:03:54.717Z,93.05
2018-05-03T02:08:57.260Z,93.38
2018-05-03T02:11:25.399Z,94.08
2018-05-03T02:13:53.507Z,94.35
2018-05-03T02:16:21.655Z,94.52
2018-05-03T02:18:49.790Z,95.06
2018-05-03T02:21:17.908Z,95.03
2018-05-03T02:23:46.047Z,95.18
2018-05-03T02:26:14.159Z,94.96
2018-05-03T02:28:42.262Z,95.68
2018-05-03T02:31:11.559Z,95.64
2018-05-03T02:33:39.689Z,95.77
2018-05-03T02:36:07.807Z,95.71
2018-05-03T02:38:35.949Z,96.39
2018-05-03T02:41:04.057Z,96.66
2018-05-03T02:43:32.253Z,96.42
2018-05-03T02:46:00.386Z,96.51
2018-05-03T02:48:28.505Z,96.43
2018-05-03T02:50:56.627Z,96.30
2018-05-03T02:53:24.786Z,96.55
2018-05-03T02:55:52.931Z,96.53
2018-05-03T02:58:32.798Z,96.64
2018-05-03T03:01:18.556Z,96.71
2018-05-03T03:04:04.291Z,97.10
2018-05-03T03:06:49.960Z,97.54
2018-05-03T03:16:28.757Z,98.14
2018-05-03T03:19:14.302Z,98.43
2018-05-03T03:22:00.057Z,98.57
2018-05-03T03:24:39.731Z,98.72
2018-05-03T03:27:25.334Z,98.75
2018-05-03T03:30:05.184Z,98.95
2018-05-03T03:32:45.033Z,98.93
2018-05-03T03:38:42.960Z,98.98
2018-05-03T03:41:22.783Z,99.07
2018-05-03T03:44:02.743Z,99.14
2018-05-03T03:46:30.901Z,99.09
2018-05-03T03:48:59.026Z,99.24
2018-05-03T03:51:27.198Z,99.44
2018-05-03T03:53:55.335Z,99.46
2018-05-03T03:56:23.513Z,99.67
2018-05-03T03:58:51.639Z,99.73
2018-05-03T04:01:19.761Z,99.64
2018-05-03T04:03:47.904Z,99.50
2018-05-03T04:06:16.048Z,99.37
2018-05-03T04:08:44.206Z,99.50
2018-05-03T04:11:12.325Z,99.45
2018-05-03T04:13:40.488Z,99.47
2018-05-03T04:16:08.634Z,99.45
2018-05-03T04:18:48.427Z,99.35
2018-05-03T04:21:28.281Z,99.29
2018-05-03T04:24:09.138Z,99.17
2018-05-03T04:26:37.267Z,99.28
2018-05-03T04:29:05.409Z,99.38
2018-05-03T04:31:33.597Z,99.47
2018-05-03T04:34:01.717Z,99.60
2018-05-03T04:36:29.911Z,99.58
2018-05-03T04:38:58.056Z,99.59
2018-05-03T04:41:26.190Z,99.43
2018-05-03T04:43:54.341Z,99.12
2018-05-03T04:46:22.508Z,98.91
2018-05-03T04:48:50.667Z,98.66
2018-05-03T04:51:18.791Z,98.45
2018-05-03T04:53:46.957Z,98.25
2018-05-03T04:56:15.096Z,98.15
2018-05-03T04:58:43.226Z,97.99
2018-05-03T05:01:11.378Z,98.06
2018-05-03T05:03:39.501Z,97.89
2018-05-03T05:06:07.642Z,97.86
2018-05-03T05:08:35.794Z,97.85
2018-05-03T05:11:03.919Z,97.64
2018-05-03T05:13:32.072Z,97.48
2018-05-03T05:16:00.227Z,97.38
2018-05-03T05:18:28.367Z,96.65
2018-05-03T05:20:56.489Z,96.65
2018-05-03T05:23:24.680Z,96.74
2018-05-03T05:25:52.808Z,96.59
2018-05-03T05:28:20.938Z,96.23
2018-05-03T05:30:49.182Z,96.30
2018-05-03T05:33:17.347Z,96.02
2018-05-03T05:35:45.475Z,96.04
2018-05-03T05:38:13.626Z,95.27
2018-05-03T05:40:41.771Z,95.15
2018-05-03T05:43:09.967Z,94.96
2018-05-03T05:45:38.118Z,94.80
2018-05-03T05:48:06.254Z,94.28
2018-05-03T05:50:34.398Z,93.74
2018-05-03T05:53:02.557Z,93.12
2018-05-03T05:55:30.698Z,92.40
2018-05-03T05:57:58.842Z,92.45
2018-05-03T06:00:26.971Z,92.38
2018-05-03T06:02:55.121Z,91.95
2018-05-03T06:05:23.253Z,91.54
2018-05-03T06:07:51.448Z,90.67
2018-05-03T06:10:19.705Z,90.15
2018-05-03T06:12:47.738Z,90.30
2018-05-03T06:15:15.895Z,89.53
2018-05-03T06:17:44.025Z,89.23
2018-05-03T06:20:12.162Z,88.84
2018-05-03T06:22:40.303Z,89.81
2018-05-03T06:25:08.437Z,88.00
2018-05-03T06:27:36.607Z,86.90
2018-05-03T06:30:04.760Z,86.96
2018-05-03T06:32:32.882Z,85.70
2018-05-03T06:35:01.041Z,86.33
2018-05-03T06:37:29.189Z,85.25
2018-05-03T06:39:58.221Z,86.05
2018-05-03T06:42:26.349Z,84.18
2018-05-03T06:44:54.469Z,82.79
2018-05-03T06:47:22.595Z,84.58
2018-05-03T06:49:50.737Z,83.56
2018-05-03T06:52:18.895Z,83.62
2018-05-03T06:54:47.016Z,82.41
2018-05-03T06:57:15.136Z,82.02
2018-05-03T06:59:43.288Z,79.63
2018-05-03T07:02:11.417Z,77.95
2018-05-03T07:04:40.381Z,77.10
2018-05-03T07:07:08.511Z,77.84
2018-05-03T07:09:36.645Z,80.53
2018-05-03T07:12:04.789Z,79.40
2018-05-03T07:14:32.909Z,77.87
2018-05-03T07:17:01.058Z,77.54
2018-05-03T07:19:29.196Z,76.40
2018-05-03T07:21:57.342Z,71.64
2018-05-03T07:24:25.527Z,76.28
2018-05-03T07:26:53.647Z,73.85
2018-05-03T07:29:21.893Z,72.17
2018-05-03T07:31:50.110Z,71.97
2018-05-03T07:34:18.247Z,71.67
2018-05-03T07:36:46.411Z,71.27
2018-05-03T07:39:14.569Z,70.13
2018-05-03T07:41:42.730Z,70.81
2018-05-03T07:44:10.882Z,68.89
2018-05-03T07:46:39.031Z,69.92
2018-05-03T07:49:07.176Z,71.27
2018-05-03T07:51:35.319Z,69.37
2018-05-03T07:54:03.458Z,69.50
2018-05-03T07:56:31.596Z,68.02
2018-05-03T07:58:59.744Z,70.05
2018-05-03T08:01:27.892Z,69.38
2018-05-03T08:03:56.018Z,68.86
2018-05-03T08:06:24.196Z,65.99
2018-05-03T08:08:52.366Z,64.80
2018-05-03T08:11:20.489Z,65.62
2018-05-03T08:13:48.611Z,65.96
2018-05-03T08:16:16.787Z,65.28
2018-05-03T08:18:44.919Z,65.22
2018-05-03T08:21:13.073Z,64.73
2018-05-03T08:23:41.204Z,62.03
2018-05-03T08:26:09.350Z,59.46
2018-05-03T08:28:37.505Z,59.54
2018-05-03T08:31:05.691Z,60.91
2018-05-03T08:33:33.837Z,62.06
2018-05-03T08:36:01.973Z,63.31
2018-05-03T08:38:30.097Z,60.12
2018-05-03T08:40:58.241Z,60.05
2018-05-03T08:43:26.378Z,60.28
2018-05-03T08:45:54.526Z,58.54
2018-05-03T08:48:22.677Z,60.31
2018-05-03T08:50:50.834Z,58.27
2018-05-03T08:53:18.972Z,56.50
2018-05-03T08:55:47.130Z,58.31
2018-05-03T08:58:15.251Z,55.84
2018-05-03T09:00:43.379Z,56.43
2018-05-03T09:03:11.513Z,57.29
2018-05-03T09:05:39.656Z,58.79
2018-05-03T09:08:07.785Z,57.95
2018-05-03T09:10:35.913Z,57.11
2018-05-03T09:13:04.050Z,56.21
2018-05-03T09:15:32.176Z,53.45
2018-05-03T09:18:00.323Z,55.45
2018-05-03T09:20:28.480Z,56.09
2018-05-03T09:22:56.621Z,57.14
2018-05-03T09:25:24.757Z,55.18
2018-05-03T09:27:52.877Z,53.25
2018-05-03T09:30:21.008Z,55.00
2018-05-03T09:32:49.149Z,51.84
2018-05-03T09:35:17.293Z,51.68
2018-05-03T09:37:45.413Z,50.98
2018-05-03T09:40:13.562Z,54.31
2018-05-03T09:42:43.579Z,53.61
2018-05-03T09:45:11.735Z,53.99
2018-05-03T09:47:39.900Z,51.67
2018-05-03T09:50:08.091Z,51.89
2018-05-03T09:52:36.296Z,53.65
2018-05-03T09:55:04.349Z,51.52
2018-05-03T09:57:32.478Z,49.44
2018-05-03T10:00:00.623Z,50.67
2018-05-03T10:02:28.738Z,52.81
2018-05-03T10:04:56.888Z,50.64
2018-05-03T10:07:25.037Z,49.59
2018-05-03T10:09:53.222Z,50.63
2018-05-03T10:12:21.359Z,48.25
2018-05-03T10:14:49.490Z,49.46
2018-05-03T10:17:17.618Z,50.37
2018-05-03T10:19:45.781Z,47.41
2018-05-03T10:22:13.923Z,46.95
2018-05-03T10:24:42.048Z,48.67
2018-05-03T10:27:10.196Z,49.17
2018-05-03T10:29:38.316Z,46.79
2018-05-03T10:32:06.440Z,47.66
2018-05-03T10:34:34.593Z,46.36
2018-05-03T10:37:02.741Z,46.86
2018-05-03T10:39:30.879Z,47.00
2018-05-03T10:41:59.067Z,49.18
2018-05-03T10:44:27.146Z,47.48
2018-05-03T10:46:55.297Z,48.06
2018-05-03T10:49:23.432Z,45.90
2018-05-03T10:51:51.559Z,46.07
2018-05-03T10:54:19.710Z,47.47
2018-05-03T10:56:47.857Z,45.77
2018-05-03T10:59:15.987Z,45.92
2018-05-03T11:01:44.119Z,45.08
2018-05-03T11:04:12.270Z,45.07
2018-05-03T11:06:40.393Z,46.96
2018-05-03T11:09:08.541Z,44.81
2018-05-03T11:11:36.678Z,45.05
2018-05-03T11:14:04.805Z,45.40
2018-05-03T11:16:32.949Z,45.15
2018-05-03T11:19:01.079Z,46.15
2018-05-03T11:21:29.206Z,45.69
2018-05-03T11:23:57.334Z,43.35
2018-05-03T11:26:25.482Z,44.99
2018-05-03T11:28:53.612Z,43.19
2018-05-03T11:31:21.843Z,44.56
2018-05-03T11:33:49.915Z,43.28
2018-05-03T11:36:18.051Z,43.39
2018-05-03T11:38:46.204Z,44.94
2018-05-03T11:41:14.322Z,43.13
2018-05-03T11:43:42.459Z,43.46
2018-05-03T11:46:10.591Z,41.07
2018-05-03T11:48:38.721Z,41.18
2018-05-03T11:51:06.916Z,40.96
2018-05-03T11:53:35.039Z,44.96
2018-05-03T11:56:03.195Z,42.80
2018-05-03T11:58:31.319Z,42.56
2018-05-03T12:00:59.439Z,40.73
2018-05-03T12:03:27.584Z,40.88
2018-05-03T12:05:55.788Z,41.03
2018-05-03T12:08:23.862Z,41.08
2018-05-03T12:10:52.006Z,40.86
2018-05-03T12:13:20.139Z,41.02
2018-05-03T12:15:48.260Z,40.66
2018-05-03T12:18:16.452Z,42.04
2018-05-03T12:20:44.600Z,40.32
2018-05-03T12:23:12.730Z,41.06
2018-05-03T12:25:40.879Z,42.38
2018-05-03T12:28:09.010Z,41.88
2018-05-03T12:30:37.133Z,40.37
2018-05-03T12:33:05.299Z,41.51
2018-05-03T12:35:33.413Z,40.67
2018-05-03T12:38:01.548Z,39.51
2018-05-03T12:40:30.126Z,40.07
2018-05-03T12:42:58.280Z,40.73
2018-05-03T12:45:26.421Z,41.95
2018-05-03T12:47:54.541Z,41.57
2018-05-03T12:50:22.667Z,40.10
2018-05-03T12:52:50.931Z,40.79
2018-05-03T12:55:19.073Z,42.01
2018-05-03T12:57:47.184Z,40.04
2018-05-03T13:00:15.310Z,40.04
2018-05-03T13:02:43.456Z,39.85
2018-05-03T13:05:11.591Z,40.81
2018-05-03T13:07:39.720Z,42.37
2018-05-03T13:10:07.865Z,40.75
2018-05-03T13:12:36.009Z,40.83
2018-05-03T13:15:04.130Z,41.81
2018-05-03T13:17:32.254Z,40.62
2018-05-03T13:20:00.401Z,40.84
2018-05-03T13:22:28.548Z,41.15
2018-05-03T13:24:56.684Z,41.21
2018-05-03T13:27:24.819Z,40.83
2018-05-03T13:29:52.944Z,41.71
2018-05-03T13:32:21.083Z,41.38
2018-05-03T13:34:49.267Z,40.75
2018-05-03T13:37:17.411Z,40.89
2018-05-03T13:39:45.540Z,41.39
2018-05-03T13:42:13.671Z,41.67
2018-05-03T13:44:41.808Z,41.02
2018-05-03T13:47:09.955Z,40.42
2018-05-03T13:49:38.082Z,41.94
2018-05-03T13:52:06.227Z,43.30
2018-05-03T13:54:34.353Z,42.05
2018-05-03T13:57:02.469Z,42.07
2018-05-03T13:59:30.593Z,42.51
2018-05-03T14:01:58.705Z,42.52
2018-05-03T14:04:26.850Z,42.50
2018-05-03T14:06:54.971Z,43.66
2018-05-03T14:09:23.114Z,43.67
2018-05-03T14:11:51.255Z,43.11
2018-05-03T14:14:19.387Z,44.07
2018-05-03T14:16:47.513Z,43.89
2018-05-03T14:19:15.739Z,45.22
2018-05-03T14:21:43.798Z,45.03
2018-05-03T14:24:11.946Z,46.02
2018-05-03T14:26:40.101Z,46.23
2018-05-03T14:29:08.246Z,46.54
2018-05-03T14:31:36.406Z,47.64
2018-05-03T14:34:04.533Z,47.85
2018-05-03T14:36:32.697Z,47.92
2018-05-03T14:39:00.849Z,47.84
2018-05-03T14:41:28.973Z,48.19
2018-05-03T14:43:57.109Z,47.82
2018-05-03T14:46:25.246Z,47.43
2018-05-03T14:48:53.390Z,48.19
2018-05-03T14:51:21.542Z,48.62
2018-05-03T14:53:49.674Z,48.98
2018-05-03T14:56:17.802Z,50.28
2018-05-03T14:58:46.464Z,50.47
2018-05-03T15:01:14.603Z,51.35
2018-05-03T15:03:42.730Z,52.87
2018-05-03T15:06:10.864Z,54.47
2018-05-03T15:08:38.990Z,54.97
2018-05-03T15:11:07.196Z,55.33
2018-05-03T15:13:35.318Z,55.99
2018-05-03T15:16:03.559Z,55.33
2018-05-03T15:18:31.595Z,55.39
2018-05-03T15:20:59.732Z,54.83
2018-05-03T15:23:27.909Z,56.19
2018-05-03T15:25:56.041Z,57.50
2018-05-03T15:28:24.159Z,57.82
2018-05-03T15:30:52.298Z,58.32
2018-05-03T15:33:20.417Z,58.47
2018-05-03T15:35:48.576Z,58.98
2018-05-03T15:38:16.794Z,59.34
2018-05-03T15:40:44.955Z,59.14
2018-05-03T15:43:13.091Z,59.01
2018-05-03T15:45:41.208Z,59.04
2018-05-03T15:48:09.339Z,59.32
2018-05-03T15:50:37.467Z,58.37
2018-05-03T15:53:05.679Z,59.07
2018-05-03T15:55:33.899Z,59.69
2018-05-03T15:58:01.999Z,59.83
2018-05-03T16:00:30.126Z,59.87
2018-05-03T16:02:58.317Z,60.42
2018-05-03T16:05:26.438Z,60.06
2018-05-03T16:07:54.575Z,60.82
2018-05-03T16:10:22.703Z,60.96
2018-05-03T16:12:50.825Z,61.32
2018-05-03T16:15:18.951Z,61.21
2018-05-03T16:17:47.073Z,61.41
2018-05-03T16:20:15.200Z,60.18
2018-05-03T16:22:43.466Z,61.29
2018-05-03T16:25:11.607Z,60.48
2018-05-03T16:27:39.726Z,61.43
2018-05-03T16:30:07.893Z,61.72
2018-05-03T16:32:36.019Z,62.26
2018-05-03T16:35:04.140Z,61.72
2018-05-03T16:37:32.293Z,61.76
2018-05-03T16:40:00.419Z,61.59
2018-05-03T16:42:28.573Z,61.64
2018-05-03T16:44:56.701Z,60.97
2018-05-03T16:47:25.022Z,59.98
2018-05-03T16:49:53.149Z,60.38
2018-05-03T16:52:21.293Z,60.75
2018-05-03T16:54:49.414Z,60.21
2018-05-03T16:57:17.537Z,60.00
2018-05-03T16:59:45.665Z,59.21
2018-05-03T17:02:13.839Z,59.34
2018-05-03T17:04:41.963Z,59.95
2018-05-03T17:07:10.093Z,60.26
2018-05-03T17:09:38.218Z,60.91
2018-05-03T17:12:06.336Z,61.57
2018-05-03T17:14:34.461Z,62.14
2018-05-03T17:17:02.581Z,63.14
2018-05-03T17:19:30.698Z,63.94
2018-05-03T17:21:58.854Z,64.27
2018-05-03T17:24:26.979Z,64.63
2018-05-03T17:26:55.095Z,65.11
2018-05-03T17:29:23.245Z,65.70
2018-05-03T17:31:51.361Z,66.01
2018-05-03T17:34:19.483Z,66.48
2018-05-03T17:36:47.627Z,66.56
2018-05-03T17:39:15.756Z,67.10
2018-05-03T17:41:43.901Z,66.85
2018-05-03T17:44:12.151Z,66.28
2018-05-03T17:46:40.280Z,66.42
2018-05-03T17:49:08.416Z,67.57
2018-05-03T17:51:36.521Z,68.26
2018-05-03T17:54:04.647Z,69.11
2018-05-03T17:56:32.796Z,69.89
2018-05-03T17:59:00.928Z,70.76
2018-05-03T18:01:29.048Z,71.27
2018-05-03T18:03:57.174Z,71.60
2018-05-03T18:06:25.316Z,71.53
2018-05-03T18:08:53.461Z,72.20
2018-05-03T18:11:21.599Z,72.38
2018-05-03T18:13:49.739Z,72.97
2018-05-03T18:16:17.923Z,73.66
2018-05-03T18:18:45.974Z,74.23
2018-05-03T18:21:14.140Z,74.38
2018-05-03T18:23:42.250Z,75.16
2018-05-03T18:26:10.460Z,75.57
2018-05-03T18:28:38.501Z,76.46
2018-05-03T18:31:06.759Z,76.88
2018-05-03T18:33:34.887Z,77.44
2018-05-03T18:36:03.011Z,77.78
2018-05-03T18:38:31.151Z,78.16
2018-05-03T18:40:59.278Z,78.55
2018-05-03T18:43:27.406Z,78.78
2018-05-03T18:45:55.533Z,79.04
2018-05-03T18:48:23.671Z,79.17
2018-05-03T18:50:51.813Z,79.83
2018-05-03T18:53:19.935Z,80.06
2018-05-03T18:55:48.065Z,79.85
2018-05-03T18:58:16.229Z,80.07
2018-05-03T19:00:44.331Z,80.41
2018-05-03T19:03:12.457Z,81.00
2018-05-03T19:05:40.586Z,81.40
2018-05-03T19:08:08.724Z,81.64
2018-05-03T19:10:36.855Z,81.74
2018-05-03T19:13:05.083Z,81.80
2018-05-03T19:15:33.137Z,81.70
2018-05-03T19:18:01.395Z,81.13
2018-05-03T19:20:29.419Z,80.94
2018-05-03T19:22:57.535Z,80.92
2018-05-03T19:25:25.675Z,80.96
2018-05-03T19:27:53.803Z,80.84
2018-05-03T19:30:21.922Z,80.97
2018-05-03T19:32:50.052Z,81.19
2018-05-03T19:35:18.190Z,81.28
2018-05-03T19:37:46.328Z,81.37
2018-05-03T19:40:14.445Z,81.57
2018-05-03T19:42:42.587Z,81.88
2018-05-03T19:45:10.719Z,81.86
2018-05-03T19:47:38.874Z,82.28
2018-05-03T19:50:06.969Z,82.61
2018-05-03T19:52:35.106Z,82.37
2018-05-03T19:55:03.236Z,82.35
2018-05-03T19:57:31.392Z,82.86
2018-05-03T20:00:00.553Z,83.13
2018-05-03T20:02:28.675Z,82.88
2018-05-03T20:04:56.796Z,82.94
2018-05-03T20:07:24.927Z,83.34
2018-05-03T20:09:53.052Z,83.15
2018-05-03T20:12:21.194Z,83.20
2018-05-03T20:14:49.307Z,83.11
2018-05-03T20:17:17.444Z,83.37
2018-05-03T20:19:45.579Z,83.49
2018-05-03T20:22:13.708Z,83.28
2018-05-03T20:24:41.833Z,83.18
2018-05-03T20:27:10.351Z,83.36
2018-05-03T20:29:38.491Z,84.16
2018-05-03T20:32:06.621Z,83.41
2018-05-03T20:34:34.757Z,83.29
2018-05-03T20:37:02.882Z,83.08
2018-05-03T20:39:31.006Z,83.00
2018-05-03T20:41:59.143Z,82.60
2018-05-03T20:44:27.274Z,82.53
2018-05-03T20:46:55.418Z,82.32
2018-05-03T20:49:23.562Z,82.61
2018-05-03T20:51:51.698Z,82.68
2018-05-03T20:54:19.821Z,82.57
2018-05-03T20:56:47.994Z,82.42
2018-05-03T20:59:16.131Z,82.22
2018-05-03T21:01:44.256Z,81.98
2018-05-03T21:04:12.383Z,82.14
2018-05-03T21:06:40.521Z,82.29
2018-05-03T21:09:08.670Z,82.10
2018-05-03T21:11:36.792Z,81.94
2018-05-03T21:14:04.926Z,82.14
2018-05-03T21:16:33.065Z,82.22
2018-05-03T21:19:01.213Z,82.01
2018-05-03T21:21:29.369Z,81.79
2018-05-03T21:23:57.511Z,81.37
2018-05-03T21:26:25.702Z,81.24
2018-05-03T21:28:53.772Z,80.96
2018-05-03T21:31:21.891Z,80.81
2018-05-03T21:33:50.052Z,80.55
2018-05-03T21:36:18.183Z,80.14
2018-05-03T21:38:46.298Z,80.46
2018-05-03T21:41:14.437Z,77.96
2018-05-03T21:43:42.567Z,77.71
2018-05-03T21:46:10.691Z,76.99
2018-05-03T21:48:38.826Z,76.75
2018-05-03T21:51:07.009Z,76.32
2018-05-03T21:53:35.132Z,75.68
2018-05-03T21:56:03.253Z,75.35
2018-05-03T21:58:31.426Z,74.64
2018-05-03T22:00:59.550Z,74.69
2018-05-03T22:03:27.727Z,74.81
2018-05-03T22:05:55.877Z,74.98
2018-05-03T22:08:24.027Z,75.28
2018-05-03T22:10:52.162Z,75.47
2018-05-03T22:13:20.290Z,75.07
2018-05-03T22:15:48.428Z,75.44
2018-05-03T22:18:16.568Z,75.18
2018-05-03T22:20:44.696Z,74.92
2018-05-03T22:23:12.829Z,75.58
2018-05-03T22:25:40.967Z,75.79
2018-05-03T22:28:09.099Z,76.36
2018-05-03T22:30:37.236Z,76.23
2018-05-03T22:33:05.424Z,76.36
2018-05-03T22:35:33.593Z,77.57
2018-05-03T22:38:01.739Z,78.42
2018-05-03T22:40:29.868Z,79.30
2018-05-03T22:42:57.990Z,79.59
2018-05-03T22:45:26.116Z,80.01
2018-05-03T22:47:54.254Z,80.57
2018-05-03T22:50:22.377Z,81.11
2018-05-03T22:52:50.508Z,81.07
2018-05-03T22:55:18.649Z,84.63
2018-05-03T22:57:46.784Z,85.67
2018-05-03T23:00:14.908Z,88.05
2018-05-03T23:02:43.088Z,89.48
2018-05-03T23:05:11.207Z,90.69
2018-05-03T23:07:40.608Z,91.39
2018-05-03T23:10:08.729Z,91.82
2018-05-03T23:12:36.876Z,92.01
2018-05-03T23:15:05.031Z,92.32
2018-05-03T23:17:33.194Z,92.37
2018-05-03T23:20:01.321Z,92.68
2018-05-03T23:22:31.942Z,93.13
2018-05-03T23:25:00.079Z,93.81
2018-05-03T23:27:28.203Z,94.39
2018-05-03T23:29:56.337Z,94.35
2018-05-03T23:32:24.475Z,94.39
2018-05-03T23:34:52.590Z,94.41
2018-05-03T23:37:20.727Z,94.57
2018-05-03T23:39:48.870Z,94.69
2018-05-03T23:42:16.996Z,94.76
2018-05-03T23:44:45.114Z,94.78
2018-05-03T23:47:13.256Z,95.22
2018-05-03T23:49:41.379Z,95.54
2018-05-03T23:52:09.502Z,95.67
2018-05-03T23:54:37.671Z,95.49
2018-05-03T23:57:05.853Z,95.58
2018-05-03T23:59:33.983Z,95.89
